UAL587 KMIA-KLAX
Flight info
| Callsign | UAL587 |
|---|---|
| Flight time | N/A |
| Altitude | 36000 |
| Route | GLADZ4 BAGGS REMIS Y280 LEV KCEEE/N0462F380 TKNIQ MOLLR JCT FST ELP J50 SSO J4 WLVRN ESTWD HLYWD1 |
| Aircraft | A20N/M-SDE2E3FGHIRWXY/LB1 |
Departure
| Time | N/A |
|---|---|
| Airport | Miami International Airport (KMIA) |
Arrival
| Time | 2026-04-21 16:58 |
|---|---|
| Airport | Los Angeles International Airport (KLAX) |
| Time | Latitude | Longitude | Altitude | Speed | Heading |
|---|---|---|---|---|---|
| 2026-04-21 16:29 | 34.14897 | -115.84697 | 35995 ft | 410 kts | 261° |
| 2026-04-21 16:31 | 34.14806 | -115.85617 | 35990 ft | 410 kts | 261° |
| 2026-04-21 16:31 | 34.14643 | -115.87274 | 35984 ft | 409 kts | 261° |
| 2026-04-21 16:32 | 34.13972 | -115.94106 | 35977 ft | 410 kts | 261° |
| 2026-04-21 16:32 | 34.13307 | -116.00932 | 35974 ft | 410 kts | 261° |
| 2026-04-21 16:32 | 34.12983 | -116.04291 | 35454 ft | 404 kts | 262° |
| 2026-04-21 16:33 | 34.12658 | -116.07642 | 34182 ft | 404 kts | 261° |
| 2026-04-21 16:33 | 34.12334 | -116.10967 | 33521 ft | 396 kts | 261° |
| 2026-04-21 16:33 | 34.12022 | -116.14144 | 32976 ft | 391 kts | 261° |
| 2026-04-21 16:33 | 34.11699 | -116.17396 | 32401 ft | 389 kts | 261° |
| 2026-04-21 16:34 | 34.11375 | -116.20644 | 31820 ft | 387 kts | 260° |
| 2026-04-21 16:34 | 34.11050 | -116.23871 | 31226 ft | 387 kts | 260° |
| 2026-04-21 16:34 | 34.10731 | -116.27052 | 30635 ft | 386 kts | 260° |
| 2026-04-21 16:34 | 34.10408 | -116.30284 | 30031 ft | 386 kts | 260° |
| 2026-04-21 16:35 | 34.10074 | -116.33502 | 29413 ft | 386 kts | 259° |
| 2026-04-21 16:35 | 34.09733 | -116.36710 | 28794 ft | 386 kts | 259° |
| 2026-04-21 16:35 | 34.09387 | -116.39915 | 28159 ft | 387 kts | 259° |
| 2026-04-21 16:35 | 34.09045 | -116.43105 | 27521 ft | 388 kts | 259° |
| 2026-04-21 16:36 | 34.08698 | -116.46307 | 26879 ft | 389 kts | 259° |
| 2026-04-21 16:36 | 34.08339 | -116.49599 | 26454 ft | 400 kts | 259° |
| 2026-04-21 16:36 | 34.07981 | -116.52896 | 26040 ft | 399 kts | 259° |
| 2026-04-21 16:36 | 34.07628 | -116.56164 | 25962 ft | 387 kts | 259° |
| 2026-04-21 16:37 | 34.07294 | -116.59306 | 25828 ft | 373 kts | 259° |
| 2026-04-21 16:37 | 34.07000 | -116.62386 | 25358 ft | 369 kts | 260° |
| 2026-04-21 16:37 | 34.06723 | -116.65457 | 24914 ft | 365 kts | 259° |
| 2026-04-21 16:37 | 34.06451 | -116.68471 | 24502 ft | 360 kts | 259° |
| 2026-04-21 16:38 | 34.06179 | -116.71444 | 24083 ft | 356 kts | 259° |
| 2026-04-21 16:38 | 34.05902 | -116.74406 | 23653 ft | 352 kts | 259° |
| 2026-04-21 16:38 | 34.05631 | -116.77308 | 23248 ft | 349 kts | 259° |
| 2026-04-21 16:38 | 34.05358 | -116.80205 | 22813 ft | 346 kts | 258° |
| 2026-04-21 16:39 | 34.05089 | -116.83041 | 22398 ft | 343 kts | 259° |
| 2026-04-21 16:39 | 34.04819 | -116.85895 | 21962 ft | 341 kts | 258° |
| 2026-04-21 16:39 | 34.04544 | -116.88713 | 21544 ft | 338 kts | 257° |
| 2026-04-21 16:39 | 34.04197 | -116.91498 | 21141 ft | 335 kts | 257° |
| 2026-04-21 16:40 | 34.03843 | -116.94234 | 20729 ft | 332 kts | 256° |
| 2026-04-21 16:40 | 34.03488 | -116.96977 | 20339 ft | 330 kts | 256° |
| 2026-04-21 16:40 | 34.03135 | -116.99684 | 19919 ft | 328 kts | 256° |
| 2026-04-21 16:40 | 34.02782 | -117.02399 | 19492 ft | 327 kts | 256° |
| 2026-04-21 16:41 | 34.02448 | -117.05083 | 19092 ft | 325 kts | 257° |
| 2026-04-21 16:41 | 34.02131 | -117.07783 | 18681 ft | 322 kts | 257° |
| 2026-04-21 16:41 | 34.01821 | -117.10437 | 18271 ft | 321 kts | 257° |
| 2026-04-21 16:41 | 34.01511 | -117.13074 | 17843 ft | 320 kts | 257° |
| 2026-04-21 16:42 | 34.01196 | -117.15710 | 17435 ft | 318 kts | 257° |
| 2026-04-21 16:42 | 34.00879 | -117.18363 | 17021 ft | 317 kts | 257° |
| 2026-04-21 16:42 | 34.00602 | -117.20698 | 16656 ft | 315 kts | 257° |
| 2026-04-21 16:42 | 34.00291 | -117.23300 | 16259 ft | 313 kts | 256° |
| 2026-04-21 16:43 | 33.99981 | -117.25882 | 15855 ft | 312 kts | 257° |
| 2026-04-21 16:43 | 33.99672 | -117.28462 | 15441 ft | 311 kts | 257° |
| 2026-04-21 16:43 | 33.99364 | -117.31024 | 15013 ft | 310 kts | 257° |
| 2026-04-21 16:43 | 33.99062 | -117.33584 | 14609 ft | 309 kts | 257° |
| 2026-04-21 16:44 | 33.98764 | -117.36127 | 14203 ft | 308 kts | 257° |
| 2026-04-21 16:44 | 33.98466 | -117.38657 | 13804 ft | 306 kts | 257° |
| 2026-04-21 16:44 | 33.98169 | -117.41183 | 13407 ft | 305 kts | 257° |
| 2026-04-21 16:44 | 33.97870 | -117.43698 | 13021 ft | 303 kts | 257° |
| 2026-04-21 16:45 | 33.97577 | -117.46196 | 12637 ft | 301 kts | 258° |
| 2026-04-21 16:45 | 33.97479 | -117.48717 | 12384 ft | 299 kts | 267° |
| 2026-04-21 16:45 | 33.97699 | -117.51206 | 12080 ft | 301 kts | 275° |
| 2026-04-21 16:45 | 33.98112 | -117.53676 | 11713 ft | 300 kts | 276° |
| 2026-04-21 16:46 | 33.98550 | -117.56119 | 11351 ft | 297 kts | 277° |
| 2026-04-21 16:46 | 33.98986 | -117.58534 | 10992 ft | 295 kts | 277° |
| 2026-04-21 16:46 | 33.99413 | -117.60925 | 10649 ft | 293 kts | 277° |
| 2026-04-21 16:46 | 33.99838 | -117.63313 | 10310 ft | 290 kts | 277° |
| 2026-04-21 16:47 | 34.00254 | -117.65662 | 10145 ft | 279 kts | 276° |
| 2026-04-21 16:47 | 34.00538 | -117.67899 | 10063 ft | 263 kts | 268° |
| 2026-04-21 16:47 | 34.00548 | -117.70059 | 9836 ft | 257 kts | 261° |
| 2026-04-21 16:47 | 34.00364 | -117.72169 | 9505 ft | 255 kts | 258° |
| 2026-04-21 16:48 | 34.00148 | -117.74284 | 9185 ft | 254 kts | 258° |
| 2026-04-21 16:48 | 33.99930 | -117.76408 | 8859 ft | 253 kts | 259° |
| 2026-04-21 16:48 | 33.99719 | -117.78507 | 8546 ft | 252 kts | 259° |
| 2026-04-21 16:48 | 33.99509 | -117.80600 | 8232 ft | 251 kts | 259° |
| 2026-04-21 16:49 | 33.99307 | -117.82653 | 7934 ft | 250 kts | 259° |
| 2026-04-21 16:49 | 33.99103 | -117.84736 | 7643 ft | 250 kts | 260° |
| 2026-04-21 16:49 | 33.98899 | -117.86828 | 7345 ft | 252 kts | 260° |
| 2026-04-21 16:49 | 33.98696 | -117.88922 | 7130 ft | 252 kts | 261° |
| 2026-04-21 16:50 | 33.98492 | -117.91010 | 6900 ft | 251 kts | 261° |
| 2026-04-21 16:50 | 33.98289 | -117.93085 | 6557 ft | 250 kts | 261° |
| 2026-04-21 16:50 | 33.98084 | -117.95170 | 6172 ft | 250 kts | 261° |
| 2026-04-21 16:50 | 33.97885 | -117.97208 | 5905 ft | 239 kts | 261° |
| 2026-04-21 16:51 | 33.97692 | -117.99170 | 5656 ft | 232 kts | 261° |
| 2026-04-21 16:51 | 33.97519 | -118.01080 | 5379 ft | 229 kts | 262° |
| 2026-04-21 16:51 | 33.97379 | -118.02989 | 5058 ft | 229 kts | 263° |
| 2026-04-21 16:51 | 33.97229 | -118.04844 | 4861 ft | 220 kts | 262° |
| 2026-04-21 16:52 | 33.97062 | -118.06670 | 4456 ft | 217 kts | 261° |
| 2026-04-21 16:52 | 33.96882 | -118.08455 | 4081 ft | 217 kts | 261° |
| 2026-04-21 16:52 | 33.96692 | -118.10250 | 3990 ft | 211 kts | 261° |
| 2026-04-21 16:52 | 33.96514 | -118.11913 | 4024 ft | 190 kts | 260° |
| 2026-04-21 16:53 | 33.96343 | -118.13492 | 4042 ft | 189 kts | 260° |
| 2026-04-21 16:53 | 33.96172 | -118.15054 | 3827 ft | 187 kts | 260° |
| 2026-04-21 16:53 | 33.96008 | -118.16571 | 3574 ft | 177 kts | 260° |
| 2026-04-21 16:53 | 33.95856 | -118.17986 | 3359 ft | 167 kts | 260° |
| 2026-04-21 16:54 | 33.95709 | -118.19356 | 3139 ft | 159 kts | 260° |
| 2026-04-21 16:54 | 33.95576 | -118.20614 | 2912 ft | 146 kts | 260° |
| 2026-04-21 16:54 | 33.95452 | -118.21792 | 2710 ft | 139 kts | 259° |
| 2026-04-21 16:54 | 33.95330 | -118.22943 | 2545 ft | 139 kts | 259° |
| 2026-04-21 16:55 | 33.95206 | -118.24112 | 2372 ft | 140 kts | 259° |
| 2026-04-21 16:55 | 33.95084 | -118.25275 | 2197 ft | 141 kts | 260° |
| 2026-04-21 16:55 | 33.94961 | -118.26446 | 2017 ft | 141 kts | 260° |
| 2026-04-21 16:55 | 33.94838 | -118.27628 | 1833 ft | 140 kts | 260° |
| 2026-04-21 16:56 | 33.94719 | -118.28784 | 1647 ft | 140 kts | 260° |
| 2026-04-21 16:56 | 33.94598 | -118.29948 | 1453 ft | 139 kts | 261° |
| 2026-04-21 16:56 | 33.94478 | -118.31101 | 1268 ft | 139 kts | 261° |
| 2026-04-21 16:56 | 33.94359 | -118.32252 | 1083 ft | 138 kts | 261° |
| 2026-04-21 16:57 | 33.94243 | -118.33388 | 910 ft | 137 kts | 261° |
| 2026-04-21 16:57 | 33.94123 | -118.34534 | 751 ft | 137 kts | 261° |
| 2026-04-21 16:57 | 33.94008 | -118.35664 | 567 ft | 136 kts | 261° |
| 2026-04-21 16:57 | 33.93889 | -118.36800 | 383 ft | 136 kts | 261° |
| 2026-04-21 16:58 | 33.93773 | -118.37929 | 198 ft | 136 kts | 262° |
| 2026-04-21 16:58 | 33.93659 | -118.39034 | 110 ft | 122 kts | 263° |
| 2026-04-21 16:58 | 33.93577 | -118.39839 | 118 ft | 72 kts | 263° |
| 2026-04-21 16:58 | 33.93535 | -118.40292 | 125 ft | 44 kts | 269° |
| 2026-04-21 16:59 | 33.93552 | -118.40504 | 129 ft | 15 kts | 285° |
| 2026-04-21 16:59 | 33.93576 | -118.40588 | 130 ft | 9 kts | 292° |
| 2026-04-21 16:59 | 33.93596 | -118.40665 | 132 ft | 9 kts | 277° |
| 2026-04-21 16:59 | 33.93595 | -118.40745 | 133 ft | 9 kts | 263° |
| 2026-04-21 17:00 | 33.93594 | -118.40826 | 134 ft | 9 kts | 283° |
| 2026-04-21 17:00 | 33.93637 | -118.40891 | 134 ft | 10 kts | 339° |
| 2026-04-21 17:00 | 33.93686 | -118.40900 | 134 ft | 11 kts | 354° |
| 2026-04-21 17:00 | 33.93794 | -118.40915 | 135 ft | 11 kts | 353° |
| 2026-04-21 17:01 | 33.93865 | -118.40898 | 134 ft | 11 kts | 68° |
| 2026-04-21 17:01 | 33.93879 | -118.40801 | 134 ft | 12 kts | 83° |
| 2026-04-21 17:01 | 33.93888 | -118.40703 | 133 ft | 10 kts | 83° |
| 2026-04-21 17:01 | 33.93899 | -118.40610 | 133 ft | 12 kts | 83° |
| 2026-04-21 17:02 | 33.93910 | -118.40498 | 130 ft | 14 kts | 83° |
| 2026-04-21 17:02 | 33.93924 | -118.40363 | 128 ft | 16 kts | 83° |
| 2026-04-21 17:02 | 33.93938 | -118.40219 | 126 ft | 18 kts | 83° |
| 2026-04-21 17:02 | 33.93951 | -118.40092 | 125 ft | 13 kts | 83° |
| 2026-04-21 17:03 | 33.93963 | -118.39973 | 124 ft | 14 kts | 83° |
| 2026-04-21 17:03 | 33.93976 | -118.39857 | 122 ft | 10 kts | 71° |
| 2026-04-21 17:03 | 33.94037 | -118.39828 | 124 ft | 9 kts | 356° |
| 2026-04-21 17:03 | 33.94101 | -118.39828 | 124 ft | 9 kts | 352° |
| 2026-04-21 17:04 | 33.94168 | -118.39838 | 125 ft | 10 kts | 353° |
| 2026-04-21 17:04 | 33.94231 | -118.39848 | 125 ft | 8 kts | 353° |
| 2026-04-21 17:04 | 33.94262 | -118.39841 | 125 ft | 4 kts | 65° |
| 2026-04-21 17:04 | 33.94274 | -118.39809 | 125 ft | 4 kts | 65° |
| 2026-04-21 17:05 | 33.94277 | -118.39801 | 125 ft | 0 kts | 65° |
| 2026-04-21 17:05 | 33.94278 | -118.39799 | 125 ft | 0 kts | 65° |